Sturgeon Bay, WI (54235)

11:51 PM CDT on July 23, 2016 (GMT -0500)
Leif Everson Observatory | | Change Station

Elev 636 ft 44.83 °N, 87.34 °W | Updated 8 minutes ago

Partly Cloudy
Partly Cloudy
72.5 °F
Feels Like 72.5 °F
N
0.0
Wind Variable Wind from South
Gusts 7.0 mph

Today
High -- | Low -- °F
--% Chance of Precip.
Yesterday
High -- | Low -- °F
Precip. -- in
Pressure 29.93 in
Visibility 10.0 miles
Clouds Few 9000 ft
Dew Point 72 °F
Humidity 100%
Rainfall 0.00 in
Snow Depth Not available.
5:26 AM 8:25 PM
Waning Gibbous, 79% visible
METAR KSUE 240356Z AUTO 17007KT 10SM FEW090 22/20 A2990 RMK AO2 SLP135 T02220200
Pressure 29.93 in
Visibility 10.0 miles
Clouds Few 9000 ft
Dew Point 72 °F
Humidity 100%
Rainfall 0.00 in
Snow Depth Not available.
5:26 AM 8:25 PM
Waning Gibbous, 79% visible
METAR KSUE 240356Z AUTO 17007KT 10SM FEW090 22/20 A2990 RMK AO2 SLP135 T02220200

10-Day Weather Forecast

Almanac

Astronomy

Jul. 23, 2016 Rise Set
Actual Time
Civil Twilight
Nautical Twilight
Astronomical Twilight
Moon
Length of Visible Light
Length of Day
Tomorrow will be .
, % of the Moon is Illuminated

Today's Extremes

State Highs State Lows

Community

WunderPhotos

Upload Photos

1,927,030 photos uploaded!

WunderBlog® & News

Nearby

Air Quality

  Air Quality AQ Index Pollutant
Not available.

Snow Depth

Station Depth Elevation

Earthquake Activity

City Distance Mag. Time & Date
Minimum magnitude displayed is 2.5.

Coastal Water Temperatures

Place Temperature

Stations

Nearby Weather Stations

Station Location Temp. Windchill Dew Point Humidity Wind Precip. Elev Updated Type
                   

Watches & Warnings

There are currently no watches in effect.